Portada
METAR-TAF:

METAR-TAF

Aeroports :

Madurai, Índia

latitud: 09-50-01N, longitud: 078-05-22E, altitud: 136 m

Observació

L'informe es va fer fa 26 minuts, a les 13:30 UTC
Vent 7 kt del Est/Sud-Est
Temperatura 29°C
Humitat 52%
Pressió 1011 hPa
Visibilitat: 6000 m

METAR: VOMD 021330Z 11007KT 6000 NSC 29/18 Q1011 NOSIG

Hora: 19:26 (13:56 UTC)

Pronòstic

L'informe es va fer fa 2 hores i 56 minuts, a les 11:00 UTC
Pronòstic vàlid del 02 a les 12 UTC al 03 a les 18 UTC
Vent 5 kt del Est
Visibilitat: 6000 m
Escasses núvols a una alçada de 2000 ft
Evolucionant progressivament
l' 02 a les 18 UTC al 02 a les 19 UTC
Vent kt del Nord
Visibilitat: 5000 m
calitja
Evolucionant progressivament
l' 03 a les 06 UTC al 03 a les 07 UTC
Vent 10 kt del Est
Visibilitat: 6000 m

TAF: VOMD 021100Z 0212/0318 09005KT 6000 FEW020 BECMG 0218/0219 00000KT 5000 HZ BECMG 0306/0307 09010KT 6000

Observacions i pronòstics meteorològics de més de 4000 aeroports (METAR i TAF).

Les estacions disponibles són els punts grocs i vermells al mapa.

Posi el ratolí al punt desitjat per veure el nom de l'estació.

Feu clic per veure les observacions i els pronòstics meteorològics.

Per canviar el mapa: feu clic els botons verds amb una creu de color negre per apropar; al botó verd amb un guió per allunyar la imatge; o en les fletxes verdes per a mapes adjacents.


METAR-TAF: